Terminal Aerodrome Forecast
Issued by NWS

Home | Current Version | Previous Version | Text Only | Print | Product List | Glossary On
Versions: 1 2 3 4 5 6 7 8 9 10 11 12 13
000
FTUS42 KGSP 312346
TAFGMU
TAF
KGMU 312346Z 0100/0124 28006KT P6SM VCSH SCT040 OVC070
      TEMPO 0100/0102 VRB10KT 6SM SHRA BR BKN040 OVC070
     FM010400 30008KT P6SM OVC040
     FM010900 35011KT P6SM VCSH OVC030
     FM011100 35011G21KT 6SM -SHRASN BR OVC025
     FM011400 01015G26KT P6SM -SHRASN BKN030
     FM011600 01016G27KT P6SM BKN050
     FM012100 35014G24KT P6SM SCT060=

USA.gov is the U.S. government's official web portal to all federal, state and local government web resources and services.